Погода Агусадорана 2 недели

Порту, Португалия

22 июля-03 августа
  • 22июля
    Сегодня
    +18°
    +26°
    Ясно и безоблачно
    ВремяПогодаТемператураВлажностьДавлениеВетер, м/сВероятность осадков
    01:00Ясно и безоблачно+17°C82 %763 мм5.8 м/с2 %
    04:00Ясно и безоблачно+16°C84 %762 мм3.9 м/с2 %
    07:00Ясно и безоблачно+15°C75 %762 мм3.2 м/с2 %
    10:00Ясно и безоблачно+22°C65 %763 мм2.8 м/с2 %
    13:00Ясно и безоблачно+26°C72 %763 мм5.1 м/с2 %
    16:00Ясно и безоблачно+26°C69 %762 мм6.4 м/с2 %
    19:00Ясно и безоблачно+25°C75 %762 мм6.7 м/с2 %
    22:00Ясно и безоблачно+22°C82 %762 мм5.0 м/с2 %
  • 23июля
    Вторник
    +18°
    +27°
    Практически безоблачно
    ВремяПогодаТемператураВлажностьДавлениеВетер, м/сВероятность осадков
    01:00Ясно и безоблачно+21°C85 %762 мм3.1 м/с2 %
    04:00Ясно и безоблачно+21°C83 %762 мм2.3 м/с2 %
    07:00Ясно и безоблачно+18°C84 %762 мм2.8 м/с2 %
    10:00Ясно и безоблачно+25°C70 %763 мм2.2 м/с2 %
    13:00Практически безоблачно+26°C82 %763 мм4.2 м/с2 %
    16:00Ясно и безоблачно+27°C76 %763 мм4.5 м/с2 %
    19:00Ясно и безоблачно+25°C79 %762 мм5.6 м/с2 %
    22:00Ясно и безоблачно+23°C90 %762 мм4.1 м/с2 %
  • 24июля
    Среда
    +15°
    +25°
    Небольшая облачность
    ВремяПогодаТемператураВлажностьДавлениеВетер, м/сВероятность осадков
    01:00Ясно и безоблачно+20°C94 %762 мм2.2 м/с2 %
    04:00Небольшая облачность+21°C95 %762 мм1.2 м/с2 %
    07:00Небольшая облачность+18°C97 %762 мм0.7 м/с2 %
    10:00Облачно с прояснениями+21°C90 %762 мм1.1 м/с2 %
    13:00Небольшая облачность+23°C88 %762 мм3.5 м/с2 %
    16:00Ясно и безоблачно+25°C79 %761 мм5.2 м/с2 %
    19:00Ясно и безоблачно+24°C81 %760 мм6.8 м/с2 %
    22:00Ясно и безоблачно+21°C87 %759 мм6.5 м/с2 %
  • 25июля
    Четверг
    +15°
    +23°
    Ясно и безоблачно
    ВремяПогодаТемператураВлажностьДавлениеВетер, м/сВероятность осадков
    01:00Ясно и безоблачно+18°C91 %759 мм2.4 м/с2 %
    04:00Ясно и безоблачно+18°C96 %758 мм0.9 м/с2 %
    07:00Облачно с прояснениями+15°C98 %758 мм0.9 м/с2 %
    10:00Облачно с прояснениями+19°C93 %759 мм1.7 м/с4 %
    13:00Ясно и безоблачно+23°C83 %758 мм5.8 м/с2 %
    16:00Ясно и безоблачно+22°C82 %757 мм8.2 м/с2 %
    19:00Ясно и безоблачно+21°C82 %757 мм9.7 м/с2 %
    22:00Ясно и безоблачно+19°C85 %757 мм9.6 м/с2 %
Мы используем cookies
Соглашаюсь